New Salem, MA (01355)

11:25 PM EST on December 21, 2014 (GMT -0500)
West Pelham Road | Change Station
CLOSE
Current Station
Personal Weather Station
Location: Shutesbury, MA
Elevation: 1150 ft
Nearby Weather Stations

Elev 1150 ft 42.44 °N, 72.43 °W | Updated 5 seconds ago

Overcast
Overcast
29.1 °F
Feels Like 29 °F
N
0.0
Wind Variable Wind from ENE
Gusts 0.0 mph

Today
High -- | Low -- °F
--% Chance of Precip.
Yesterday
High -- | Low -- °F
Precip. -- in
7:15 AM 4:19 PM
New Moon, 0% visible
Pressure 30.37 in
Visibility 10.0 miles
Clouds Scattered Clouds 3600 ft
Overcast 4400 ft
Windchill 29 °F
Dew Point 28 °F
Humidity 95%
Rainfall 0.00 in
Snow Depth Not available.
UV 0 out of 12
Pollen .10 out of 12
Air Quality Not available.
Flu Activity Not available.
METAR KORE 220352Z AUTO 00000KT 10SM SCT036 OVC044 00/M01 A3034 RMK AO2 SLP283 T00001011

More Conditions Fewer Conditions

Pressure 30.37 in
Visibility 10.0 miles
Clouds Scattered Clouds 3600 ft
Overcast 4400 ft
Windchill 29 °F
Dew Point 28 °F
Humidity 95%
Rainfall 0.00 in
Snow Depth Not available.
UV 0 out of 12
Pollen .10 out of 12
Air Quality Not available.
Flu Activity Not available.
METAR KORE 220352Z AUTO 00000KT 10SM SCT036 OVC044 00/M01 A3034 RMK AO2 SLP283 T00001011

More Conditions Fewer Conditions

10-Day Weather Forecast

Almanac

Astronomy

Dec. 21, 2014 Rise Set
Actual Time
Civil Twilight
Nautical Twilight
Astronomical Twilight
Moon
Length of Visible Light
Length of Day
Tomorrow will be .
, % of the Moon is Illuminated

Today's Extremes

State Highs State Lows

Community

WunderPhotos

Upload Photos

1,779,537 photos uploaded!

WunderBlogs® & News

Nearby

Air Quality

  Air Quality AQ Index Pollutant
Not available.

Snow Depth

Station Depth Elevation

Earthquake Activity

City Distance Mag. Time & Date
Minimum magnitude displayed is 2.5.

Coastal Water Temperatures

Place Temperature

Nearby Weather Stations